Goshen, AR

4:17 AM CDT on April 27, 2015 (GMT -0500)
Bentonville Municipal-Thaden | | Change Station
CLOSE
Current Station
Airport
Location: Bentonville,
Elevation: 1296 ft
Nearby Weather Stations

Elev 1296 ft 36.34 °N, 94.22 °W | Updated 22 minutes ago

Overcast
Overcast
54 °F
Feels Like 54 °F
N
8
Wind Variable Wind from SSE

Today
High -- | Low -- °F
--% Chance of Precip.
Yesterday
High -- | Low -- °F
Precip. -- in
6:28 AM 7:59 PM
Waxing Gibbous, 63% visible
Pressure 29.99 in
Visibility 10.0 miles
Clouds Overcast 5000 ft
Dew Point 45 °F
Humidity 72%
Rainfall 0.00 in
Snow Depth Not available.
UV 0 out of 12
Pollen 10.10 out of 12
Air Quality Not available.
Flu Activity Sporadic
METAR KVBT 270855Z AUTO 15007KT 10SM TS OVC050 12/07 A2999 RMK AO1 TSB31 52030

More Conditions Fewer Conditions

Pressure 29.99 in
Visibility 10.0 miles
Clouds Overcast 5000 ft
Dew Point 45 °F
Humidity 72%
Rainfall 0.00 in
Snow Depth Not available.
UV 0 out of 12
Pollen 10.10 out of 12
Air Quality Not available.
Flu Activity Sporadic
METAR KVBT 270855Z AUTO 15007KT 10SM TS OVC050 12/07 A2999 RMK AO1 TSB31 52030

More Conditions Fewer Conditions

Nowcast | as of 3:58 am CDT on April 27, 2015

At 3:50 PM...National Weather Service radars detected showers with embedded isolated thunderstorms spreading across portions of eastern Oklahoma and also northwest Arkansas. The leading edge of the precipitation along with the isolated thunder was along and near a line from Copan to Bentonville to Huntsville Arkansas. The rear edge of the precipitation was along and near a line from Ponca City to Tahlequah to Talihina. These showers and storms were moving toward the north and northeast at around 15 miles per hour. Through 5:00 am...showers with isolated embedded thunderstorms will continue to move across parts of northeast and far eastern Oklahoma as well as northwest Arkansas. Hourly rainfall amounts from a couple hundredths of an inch to near a quarter of an inch will be possible...with locally higher amounts within any thunderstorm activity.

×

10-Day Weather Forecast

Almanac

Astronomy

Apr. 27, 2015 Rise Set
Actual Time
Civil Twilight
Nautical Twilight
Astronomical Twilight
Moon
Length of Visible Light
Length of Day
Tomorrow will be .
, % of the Moon is Illuminated

Today's Extremes

State Highs State Lows

Community

WunderPhotos

Upload Photos

1,817,277 photos uploaded!

WunderBlogs® & News

Nearby

Air Quality

  Air Quality AQ Index Pollutant
Not available.

Snow Depth

Station Depth Elevation

Earthquake Activity

City Distance Mag. Time & Date
Minimum magnitude displayed is 2.5.

Coastal Water Temperatures

Place Temperature

Stations

Nearby Weather Stations

Station Location Temp. Windchill Dew Point Humidity Wind Precip. Elev Updated Type